Time;durP1;ratioP1;P1;durP2;ratioP2;P2;SDS_P1;SDS_P2;PMS_P1;PMS_P2;Temp;Humidity;BMP_temperature;BMP_pressure;BME280_temperature;BME280_humidity;BME280_pressure;Samples;Min_cycle;Max_cycle;Signal;HPM_P1;HPM_P2
2023/10/11 00:01:47;;;;;;;39.50;18.13;;;16.70;99.90;;;;;;5051471;28;20049;-72
2023/10/11 00:04:26;;;;;;;30.88;17.23;;;16.70;99.90;;;;;;5065987;28;20058;-72
2023/10/11 00:06:54;;;;;;;36.70;18.23;;;16.70;99.90;;;;;;5054517;28;20049;-72
2023/10/11 00:09:34;;;;;;;32.88;17.95;;;16.80;99.90;;;;;;5054751;28;20036;-72
2023/10/11 00:12:04;;;;;;;31.70;15.40;;;16.70;99.90;;;;;;5070382;28;20041;-72
2023/10/11 00:14:31;;;;;;;28.05;17.25;;;16.70;99.90;;;;;;5051031;28;20076;-72
2023/10/11 00:16:57;;;;;;;40.05;16.92;;;16.60;99.90;;;;;;5051683;28;20133;-72
2023/10/11 00:19:28;;;;;;;35.97;17.08;;;16.70;99.90;;;;;;5050600;28;20847;-72
2023/10/11 00:21:54;;;;;;;27.40;14.68;;;16.70;99.90;;;;;;5051542;28;20044;-72
2023/10/11 00:24:23;;;;;;;29.15;16.63;;;16.70;99.90;;;;;;5052330;28;20379;-72
2023/10/11 00:26:49;;;;;;;32.47;15.70;;;16.60;99.90;;;;;;5049646;28;20482;-72
2023/10/11 00:29:16;;;;;;;30.10;16.17;;;16.60;99.90;;;;;;5051009;28;20052;-72
2023/10/11 00:31:41;;;;;;;35.63;16.35;;;16.60;99.90;;;;;;5034308;28;20125;-72
2023/10/11 00:34:10;;;;;;;32.40;15.88;;;16.70;99.90;;;;;;5051618;28;20116;-72
2023/10/11 00:36:36;;;;;;;27.65;15.10;;;16.70;99.90;;;;;;5052225;28;20044;-72
2023/10/11 00:39:05;;;;;;;30.77;15.40;;;16.60;99.90;;;;;;5051644;28;20033;-72
2023/10/11 00:41:31;;;;;;;37.55;16.73;;;16.70;99.90;;;;;;5050430;28;20493;-72
2023/10/11 00:43:57;;;;;;;32.30;14.80;;;16.60;99.90;;;;;;5034630;28;20048;-72
2023/10/11 00:46:29;;;;;;;30.67;15.73;;;16.60;99.90;;;;;;5050242;28;20061;-72
2023/10/11 00:49:09;;;;;;;33.97;15.30;;;16.60;99.90;;;;;;5050725;28;20041;-72
2023/10/11 00:51:37;;;;;;;32.30;15.68;;;16.60;99.90;;;;;;5050586;28;20127;-72
2023/10/11 00:54:04;;;;;;;28.38;14.68;;;16.60;99.90;;;;;;5051884;28;20422;-72
2023/10/11 00:56:33;;;;;;;34.33;15.55;;;16.60;99.90;;;;;;5050047;28;20059;-72
2023/10/11 00:59:02;;;;;;;28.90;14.70;;;16.70;99.90;;;;;;5051349;28;20084;-72
2023/10/11 01:01:28;;;;;;;33.22;15.07;;;16.60;99.90;;;;;;5049653;28;20466;-72
2023/10/11 01:03:55;;;;;;;26.17;14.70;;;16.60;99.90;;;;;;5051977;28;20037;-72
2023/10/11 01:06:25;;;;;;;31.15;14.50;;;16.60;99.90;;;;;;5052737;28;20045;-72
2023/10/11 01:08:52;;;;;;;29.20;15.07;;;16.60;99.90;;;;;;5049847;28;20041;-72
2023/10/11 01:11:18;;;;;;;29.23;13.63;;;16.60;99.90;;;;;;5051546;28;20115;-72
2023/10/11 01:13:50;;;;;;;28.20;14.73;;;16.50;99.90;;;;;;5050547;28;20040;-72
2023/10/11 01:16:26;;;;;;;29.33;14.30;;;16.50;99.90;;;;;;5050904;28;20482;-72
2023/10/11 01:18:52;;;;;;;25.73;13.48;;;16.50;99.90;;;;;;5050627;28;20045;-72
2023/10/11 01:21:21;;;;;;;36.53;14.32;;;16.60;99.90;;;;;;5049810;28;20094;-72
2023/10/11 01:23:48;;;;;;;29.55;15.48;;;16.50;99.90;;;;;;5051226;28;20033;-72
2023/10/11 01:26:15;;;;;;;33.17;13.45;;;16.50;99.90;;;;;;5050309;28;20045;-72
2023/10/11 01:28:44;;;;;;;28.85;14.20;;;16.50;99.90;;;;;;5051053;28;20040;-72
2023/10/11 01:31:10;;;;;;;36.42;13.88;;;16.50;99.90;;;;;;5050147;28;20051;-72
2023/10/11 01:33:41;;;;;;;25.42;13.77;;;16.50;99.90;;;;;;5051826;28;20033;-72
2023/10/11 01:36:11;;;;;;;30.27;13.88;;;16.50;99.90;;;;;;5049440;28;20056;-72
2023/10/11 01:38:48;;;;;;;31.25;13.18;;;16.50;99.90;;;;;;5054755;28;20044;-72
2023/10/11 01:41:15;;;;;;;28.65;14.27;;;16.40;99.90;;;;;;5055604;28;20495;-72
2023/10/11 01:43:41;;;;;;;27.38;13.77;;;16.50;99.90;;;;;;5053148;28;20044;-72
2023/10/11 01:46:07;;;;;;;25.02;13.88;;;16.40;99.90;;;;;;5054071;28;20036;-72
2023/10/11 01:48:33;;;;;;;24.20;12.07;;;16.50;99.90;;;;;;5054183;28;20098;-72
2023/10/11 01:51:05;;;;;;;22.23;11.55;;;16.50;99.90;;;;;;5053276;28;20464;-72
2023/10/11 01:53:31;;;;;;;24.75;13.18;;;16.50;99.90;;;;;;5054938;28;20037;-72
2023/10/11 01:55:57;;;;;;;29.67;12.50;;;16.50;99.90;;;;;;5054082;28;20045;-72
2023/10/11 01:58:23;;;;;;;30.05;12.65;;;16.50;99.90;;;;;;5053086;28;20056;-72
2023/10/11 02:00:49;;;;;;;27.45;14.10;;;16.50;99.90;;;;;;5054164;28;20076;-72
2023/10/11 02:03:15;;;;;;;31.73;12.93;;;16.40;99.90;;;;;;5055182;28;20037;-72
2023/10/11 02:05:41;;;;;;;30.33;13.07;;;16.40;99.90;;;;;;5045968;28;20366;-72
2023/10/11 02:08:11;;;;;;;30.65;13.15;;;16.50;99.90;;;;;;5073506;28;20048;-72
2023/10/11 02:10:37;;;;;;;28.60;13.85;;;16.50;99.90;;;;;;5074150;28;20066;-72
2023/10/11 02:13:04;;;;;;;28.73;12.68;;;16.40;99.90;;;;;;5073704;28;20044;-72
2023/10/11 02:15:34;;;;;;;24.38;12.13;;;16.50;99.90;;;;;;5053331;28;20482;-72
2023/10/11 02:18:07;;;;;;;24.50;11.35;;;16.40;99.90;;;;;;5054720;28;20052;-72
2023/10/11 02:20:33;;;;;;;23.98;11.55;;;16.40;99.90;;;;;;5053190;28;20051;-72
2023/10/11 02:23:00;;;;;;;29.55;13.20;;;16.50;99.90;;;;;;5053745;28;20060;-72
2023/10/11 02:25:26;;;;;;;27.48;12.10;;;16.50;99.90;;;;;;5035925;28;20120;-72
2023/10/11 02:27:53;;;;;;;34.35;12.40;;;16.50;99.90;;;;;;5053334;28;20051;-72
2023/10/11 02:30:26;;;;;;;27.95;12.30;;;16.50;99.90;;;;;;5067809;28;20119;-72
2023/10/11 02:32:59;;;;;;;27.80;13.23;;;16.50;99.90;;;;;;5071575;28;20049;-72
2023/10/11 02:35:29;;;;;;;27.67;13.57;;;16.50;99.90;;;;;;5073247;28;20050;-72
2023/10/11 02:37:59;;;;;;;31.70;12.93;;;16.50;99.90;;;;;;5073298;28;20047;-72
2023/10/11 02:40:25;;;;;;;23.17;11.48;;;16.50;99.90;;;;;;5073772;28;20037;-72
2023/10/11 02:42:55;;;;;;;27.25;11.98;;;16.50;99.90;;;;;;5074597;28;20043;-72
2023/10/11 02:45:22;;;;;;;28.00;12.73;;;16.50;99.90;;;;;;5074431;28;20120;-72
2023/10/11 02:47:59;;;;;;;28.80;12.73;;;16.50;99.90;;;;;;5073381;28;20432;-72
2023/10/11 02:50:28;;;;;;;27.65;11.98;;;16.50;99.90;;;;;;5072677;28;20048;-72
2023/10/11 02:53:05;;;;;;;25.33;12.23;;;16.50;99.90;;;;;;5072507;28;20086;-72
2023/10/11 02:55:30;;;;;;;27.33;13.05;;;16.50;99.90;;;;;;5072668;28;20125;-72
2023/10/11 02:58:08;;;;;;;26.88;11.63;;;16.40;99.90;;;;;;5074618;28;20068;-72
2023/10/11 03:00:36;;;;;;;30.63;11.43;;;16.50;99.90;;;;;;5054775;28;20429;-71
2023/10/11 03:03:07;;;;;;;23.35;12.40;;;16.50;99.90;;;;;;5086855;28;20393;-71
2023/10/11 03:05:37;;;;;;;25.25;11.60;;;16.50;99.90;;;;;;5052630;28;20087;-71
2023/10/11 03:08:20;;;;;;;21.48;9.60;;;16.50;99.90;;;;;;5052151;28;20067;-71
2023/10/11 03:10:54;;;;;;;27.23;12.98;;;16.50;99.90;;;;;;5036246;28;20397;-71
2023/10/11 03:13:24;;;;;;;27.27;10.63;;;16.50;99.90;;;;;;5052731;28;20112;-71
2023/10/11 03:15:56;;;;;;;27.48;11.45;;;16.40;99.90;;;;;;5051751;28;20055;-71
2023/10/11 03:18:33;;;;;;;35.53;12.57;;;16.50;99.90;;;;;;5042139;28;20132;-71
2023/10/11 03:21:08;;;;;;;26.20;10.32;;;16.50;99.90;;;;;;5057347;28;20478;-71
2023/10/11 03:23:44;;;;;;;26.90;11.65;;;16.50;99.90;;;;;;5074226;28;20041;-71
2023/10/11 03:26:17;;;;;;;28.08;11.02;;;16.50;99.90;;;;;;5066181;28;20193;-72
2023/10/11 03:28:56;;;;;;;23.98;11.88;;;16.50;99.90;;;;;;5070854;28;20048;-71
2023/10/11 03:31:22;;;;;;;18.90;10.82;;;16.50;99.90;;;;;;5072294;28;20052;-71
2023/10/11 03:33:48;;;;;;;21.05;9.85;;;16.50;99.90;;;;;;5072295;28;20048;-71
2023/10/11 03:36:24;;;;;;;20.05;11.40;;;16.50;99.90;;;;;;5071366;28;20044;-72
2023/10/11 03:38:53;;;;;;;23.10;10.65;;;16.50;99.90;;;;;;5071873;28;20047;-71
2023/10/11 03:41:25;;;;;;;20.02;10.98;;;16.50;99.90;;;;;;5071898;28;20043;-72
2023/10/11 03:43:54;;;;;;;24.80;10.98;;;16.40;99.90;;;;;;5054729;28;20040;-73
2023/10/11 03:46:24;;;;;;;24.30;9.70;;;16.40;99.90;;;;;;5072391;28;20481;-73
2023/10/11 03:49:01;;;;;;;24.80;10.27;;;16.40;99.90;;;;;;5071936;28;20209;-71
2023/10/11 03:51:28;;;;;;;23.27;10.38;;;16.40;99.90;;;;;;5071388;28;20068;-71
2023/10/11 03:53:54;;;;;;;25.25;10.10;;;16.40;99.90;;;;;;5072008;28;20112;-71
2023/10/11 03:56:19;;;;;;;21.70;10.98;;;16.40;99.90;;;;;;5104969;28;20434;-71
2023/10/11 03:58:45;;;;;;;21.63;10.65;;;16.40;99.90;;;;;;5097695;28;20047;-71
2023/10/11 04:03:39;;;;;;;26.48;10.02;;;16.30;99.90;;;;;;5050861;28;20129;-71
2023/10/11 04:06:14;;;;;;;23.15;10.27;;;16.40;99.90;;;;;;5053247;28;20510;-71
2023/10/11 04:08:48;;;;;;;25.83;10.73;;;16.40;99.90;;;;;;5084917;28;20040;-71
2023/10/11 04:11:29;;;;;;;20.70;10.53;;;16.40;99.90;;;;;;5084355;28;20051;-71
2023/10/11 04:13:55;;;;;;;27.83;11.50;;;16.40;99.90;;;;;;5084897;28;20386;-71
2023/10/11 04:16:23;;;;;;;25.52;11.00;;;16.30;99.90;;;;;;5051231;28;20037;-71
2023/10/11 04:18:52;;;;;;;26.90;9.77;;;16.30;99.90;;;;;;5066974;28;20080;-71
2023/10/11 04:23:55;;;;;;;27.95;11.20;;;16.40;99.90;;;;;;5084900;28;20057;-71
2023/10/11 04:28:58;;;;;;;27.85;10.55;;;16.30;99.90;;;;;;5051705;28;20432;-71
2023/10/11 04:31:36;;;;;;;22.13;10.23;;;16.30;99.90;;;;;;5050552;28;20041;-71
2023/10/11 04:34:11;;;;;;;23.80;11.25;;;16.30;99.90;;;;;;5052159;28;20045;-71
2023/10/11 04:36:42;;;;;;;19.23;9.43;;;16.30;99.90;;;;;;5070698;28;20059;-71
2023/10/11 04:39:15;;;;;;;24.50;12.80;;;16.30;99.90;;;;;;5070545;28;20101;-71
2023/10/11 04:41:49;;;;;;;22.20;11.57;;;16.30;99.90;;;;;;5070946;28;20044;-72
2023/10/11 04:44:17;;;;;;;19.90;10.55;;;16.30;99.90;;;;;;5072105;28;20106;-71
2023/10/11 04:46:44;;;;;;;20.35;10.50;;;16.30;99.90;;;;;;5070063;28;20413;-71
2023/10/11 04:49:18;;;;;;;20.20;10.07;;;16.30;99.90;;;;;;5070186;28;20028;-71
2023/10/11 04:51:46;;;;;;;25.73;11.67;;;16.20;99.90;;;;;;5070772;28;20067;-71
2023/10/11 04:54:18;;;;;;;17.67;9.77;;;16.20;99.90;;;;;;5070077;28;20366;-71
2023/10/11 04:59:15;;;;;;;23.50;10.77;;;16.30;99.90;;;;;;5050607;28;20045;-71
2023/10/11 05:04:14;;;;;;;25.13;11.23;;;16.10;99.90;;;;;;5050559;28;20048;-71
2023/10/11 05:06:41;;;;;;;25.98;11.45;;;16.10;99.90;;;;;;5050099;28;20045;-71
2023/10/11 05:11:50;;;;;;;21.85;12.70;;;16.10;99.90;;;;;;5050990;28;20049;-71
2023/10/11 05:14:29;;;;;;;23.95;11.32;;;16.10;99.90;;;;;;5056227;28;20119;-71
2023/10/11 05:16:59;;;;;;;29.75;11.73;;;16.10;99.90;;;;;;5057276;28;20049;-71
2023/10/11 05:19:34;;;;;;;19.50;11.07;;;16.10;99.90;;;;;;5057124;28;20049;-71
2023/10/11 05:22:03;;;;;;;23.58;10.05;;;16.20;99.90;;;;;;5040093;28;20076;-71
2023/10/11 05:27:11;;;;;;;24.83;11.55;;;16.30;99.90;;;;;;5090862;28;20049;-71
2023/10/11 05:32:32;;;;;;;25.15;10.77;;;16.20;99.90;;;;;;5058197;28;20401;-71
2023/10/11 05:51:39;;;;;;;29.17;11.50;;;16.30;99.90;;;;;;5063382;28;20060;-71
2023/10/11 05:54:11;;;;;;;18.38;10.15;;;16.40;99.90;;;;;;5076831;28;20132;-71
2023/10/11 05:56:45;;;;;;;24.92;10.27;;;16.40;99.90;;;;;;5056075;28;20490;-71
2023/10/11 05:59:13;;;;;;;21.30;10.02;;;16.40;99.90;;;;;;5057059;28;20486;-71
2023/10/11 06:01:43;;;;;;;22.23;10.73;;;16.40;99.90;;;;;;5056877;28;20063;-71
2023/10/11 06:04:13;;;;;;;25.95;11.10;;;16.50;99.90;;;;;;5061608;28;20080;-72
2023/10/11 06:06:42;;;;;;;26.10;11.27;;;16.50;99.90;;;;;;5056337;28;20041;-72
2023/10/11 06:09:17;;;;;;;20.50;10.00;;;16.40;99.90;;;;;;5056764;28;20052;-72
2023/10/11 06:11:50;;;;;;;22.25;10.30;;;16.50;99.90;;;;;;5056012;28;20122;-72
2023/10/11 06:14:17;;;;;;;24.02;11.10;;;16.60;99.90;;;;;;5039872;28;20116;-71
2023/10/11 06:16:49;;;;;;;20.95;10.48;;;16.50;99.90;;;;;;5055949;28;20044;-72
2023/10/11 06:19:16;;;;;;;24.98;11.32;;;16.60;99.90;;;;;;5039638;28;20125;-72
2023/10/11 06:21:57;;;;;;;21.25;10.65;;;16.60;99.90;;;;;;5056458;28;20051;-72
2023/10/11 06:24:23;;;;;;;17.38;10.35;;;16.60;99.90;;;;;;5053429;28;20049;-72
2023/10/11 06:29:18;;;;;;;21.38;10.10;;;16.80;99.90;;;;;;5054825;28;20036;-71
2023/10/11 06:31:44;;;;;;;24.88;11.68;;;16.80;99.90;;;;;;5053847;28;20041;-71
2023/10/11 06:34:19;;;;;;;25.27;11.50;;;16.80;99.90;;;;;;5053302;28;20387;-71
2023/10/11 06:36:50;;;;;;;;;;;16.80;99.90;;;;;;5054127;28;20432;-71
2023/10/11 06:42:14;;;;;;;19.25;9.90;;;16.80;99.90;;;;;;5087191;28;20049;-71
2023/10/11 06:44:47;;;;;;;18.25;9.45;;;16.80;99.90;;;;;;5036641;28;20041;-71
2023/10/11 06:47:13;;;;;;;19.30;10.70;;;16.80;99.90;;;;;;5044762;28;20068;-71
2023/10/11 06:49:44;;;;;;;29.15;11.20;;;16.90;99.90;;;;;;5056562;28;20045;-71
2023/10/11 06:52:25;;;;;;;18.60;10.75;;;17.00;99.90;;;;;;5051953;28;20509;-71
2023/10/11 06:55:13;;;;;;;21.42;10.52;;;17.00;99.90;;;;;;5053059;28;20045;-71
2023/10/11 06:57:50;;;;;;;22.67;10.30;;;16.90;99.90;;;;;;5052840;28;20044;-71
2023/10/11 07:00:21;;;;;;;24.95;10.07;;;17.00;99.90;;;;;;5035320;28;20041;-71
2023/10/11 07:05:47;;;;;;;24.58;10.65;;;17.10;99.90;;;;;;5052723;28;20055;-71
2023/10/11 07:08:17;;;;;;;19.05;9.32;;;17.10;99.90;;;;;;5051830;28;20062;-71
2023/10/11 07:11:16;;;;;;;22.30;10.30;;;17.10;99.90;;;;;;5055242;28;20036;-71
2023/10/11 07:14:00;;;;;;;17.02;9.38;;;17.20;99.90;;;;;;5057704;28;20119;-71
2023/10/11 07:16:28;;;;;;;16.08;9.20;;;17.10;99.90;;;;;;5079481;28;20147;-71
2023/10/11 07:18:57;;;;;;;19.27;9.32;;;17.10;99.90;;;;;;5072590;28;20040;-71
2023/10/11 07:21:26;;;;;;;19.88;9.68;;;17.20;99.90;;;;;;5059042;28;20044;-71
2023/10/11 07:26:23;;;;;;;17.80;9.07;;;17.20;99.90;;;;;;5038723;28;20072;-71
2023/10/11 07:28:53;;;;;;;17.65;8.90;;;17.20;99.90;;;;;;5048632;28;20045;-71
2023/10/11 07:31:32;;;;;;;17.50;8.93;;;17.30;99.90;;;;;;5049807;28;20158;-71
2023/10/11 07:34:09;;;;;;;12.23;7.47;;;17.30;99.90;;;;;;5049992;28;20494;-71
2023/10/11 07:36:39;;;;;;;14.50;8.20;;;17.40;99.90;;;;;;5049861;28;20059;-71
2023/10/11 07:39:48;;;;;;;12.23;7.28;;;17.40;99.90;;;;;;5050880;28;20103;-71
2023/10/11 07:42:08;;;;;;;17.42;7.95;;;17.50;99.90;;;;;;5047513;28;20485;-71
2023/10/11 07:44:36;;;;;;;14.93;8.50;;;17.50;99.90;;;;;;5069563;28;20055;-71
2023/10/11 07:47:07;;;;;;;18.27;7.28;;;17.50;99.90;;;;;;5069588;28;20185;-71
2023/10/11 07:49:40;;;;;;;15.70;7.20;;;17.50;99.90;;;;;;5068184;28;20378;-71
2023/10/11 07:52:08;;;;;;;20.85;7.32;;;17.50;99.90;;;;;;5068190;28;20048;-71
2023/10/11 07:54:36;;;;;;;13.98;6.50;;;17.50;99.90;;;;;;5047870;28;20044;-71
2023/10/11 07:57:03;;;;;;;11.93;6.60;;;17.60;99.90;;;;;;5048300;28;20477;-71
2023/10/11 07:59:30;;;;;;;13.10;7.10;;;17.60;99.90;;;;;;5031899;28;20045;-71
2023/10/11 08:02:07;;;;;;;12.88;6.93;;;17.60;99.90;;;;;;5050245;28;20071;-71
2023/10/11 08:04:36;;;;;;;13.02;6.82;;;17.60;99.90;;;;;;5065167;28;20053;-71
2023/10/11 08:07:12;;;;;;;14.15;7.95;;;17.60;99.90;;;;;;5057333;28;20052;-71
2023/10/11 08:09:46;;;;;;;13.18;7.30;;;17.60;99.90;;;;;;5035315;28;20049;-70
2023/10/11 08:12:14;;;;;;;;;;;17.60;99.90;;;;;;5081729;28;20115;-70
2023/10/11 08:14:44;;;;;;;13.25;7.38;;;17.60;99.90;;;;;;5079119;28;19920;-71
2023/10/11 08:17:19;;;;;;;17.38;8.65;;;17.60;99.90;;;;;;5036260;28;20045;-71
2023/10/11 08:19:46;;;;;;;15.60;8.85;;;17.60;99.90;;;;;;5031978;28;20045;-71
2023/10/11 08:22:16;;;;;;;15.13;8.63;;;17.50;99.90;;;;;;5048350;28;20145;-70
2023/10/11 08:24:47;;;;;;;15.45;8.23;;;17.50;99.90;;;;;;5047707;28;20128;-71
2023/10/11 08:27:14;;;;;;;14.63;8.98;;;17.50;99.90;;;;;;5050449;28;20045;-71
2023/10/11 08:29:43;;;;;;;19.58;9.38;;;17.40;99.90;;;;;;5048827;28;20044;-71
2023/10/11 08:32:12;;;;;;;21.63;8.90;;;17.40;99.90;;;;;;5047500;28;20044;-71
2023/10/11 08:34:43;;;;;;;15.77;9.48;;;17.40;99.90;;;;;;5048815;28;20114;-71
2023/10/11 08:37:09;;;;;;;16.48;8.20;;;17.40;99.90;;;;;;5049041;28;20052;-71
2023/10/11 08:39:44;;;;;;;15.27;8.27;;;17.40;99.90;;;;;;5063860;28;20413;-71
2023/10/11 08:42:11;;;;;;;13.45;8.70;;;17.40;99.90;;;;;;5048175;28;20099;-70
2023/10/11 08:44:40;;;;;;;11.20;6.53;;;17.50;99.90;;;;;;5047660;28;20044;-70
2023/10/11 08:47:06;;;;;;;12.93;7.15;;;17.50;99.90;;;;;;5048000;28;20509;-70
2023/10/11 08:49:34;;;;;;;15.15;7.32;;;17.50;99.90;;;;;;5031367;28;20044;-70
2023/10/11 08:52:02;;;;;;;10.80;6.40;;;17.60;99.90;;;;;;5080869;28;20060;-70
2023/10/11 08:54:28;;;;;;;14.98;7.18;;;17.60;99.90;;;;;;5054071;28;20120;-70
2023/10/11 08:56:54;;;;;;;10.93;6.47;;;17.60;99.90;;;;;;5034465;28;20052;-66
2023/10/11 08:59:31;;;;;;;12.27;7.25;;;17.60;99.90;;;;;;5033715;28;20166;-67
2023/10/11 09:02:07;;;;;;;11.70;6.80;;;17.60;99.90;;;;;;5067687;28;20068;-66
2023/10/11 09:04:35;;;;;;;9.80;6.05;;;17.60;99.90;;;;;;5058713;28;20052;-67
2023/10/11 09:07:04;;;;;;;11.07;6.40;;;17.70;99.90;;;;;;5051659;28;20041;-72
2023/10/11 09:09:33;;;;;;;12.25;6.00;;;17.60;99.90;;;;;;5049819;28;20044;-71
2023/10/11 09:11:59;;;;;;;16.02;7.60;;;17.70;99.90;;;;;;5050676;28;20048;-72
2023/10/11 09:14:27;;;;;;;10.98;6.45;;;17.70;99.90;;;;;;5049980;28;20044;-72
2023/10/11 09:16:57;;;;;;;10.77;5.80;;;17.70;99.90;;;;;;5050761;28;20060;-71
2023/10/11 09:19:23;;;;;;;13.18;6.25;;;17.70;99.90;;;;;;5050591;28;20080;-72
2023/10/11 09:22:05;;;;;;;10.88;6.78;;;17.70;99.90;;;;;;5049596;28;20521;-71
2023/10/11 09:24:39;;;;;;;11.65;6.10;;;17.80;99.90;;;;;;5049919;28;20128;-71
2023/10/11 09:27:23;;;;;;;12.63;6.68;;;17.80;99.90;;;;;;5066733;28;20072;-71
2023/10/11 09:29:50;;;;;;;17.40;6.80;;;17.80;99.90;;;;;;5067775;28;20041;-71
2023/10/11 09:32:27;;;;;;;11.20;5.60;;;17.80;99.90;;;;;;5050272;28;20358;-71
2023/10/11 09:34:54;;;;;;;13.02;6.00;;;17.80;99.90;;;;;;5049996;28;20350;-71
2023/10/11 09:37:23;;;;;;;11.27;5.78;;;17.90;99.90;;;;;;5050280;28;20041;-71
2023/10/11 09:39:53;;;;;;;14.82;6.00;;;17.80;99.90;;;;;;5050536;28;20446;-72
2023/10/11 09:42:22;;;;;;;11.80;4.85;;;17.80;99.90;;;;;;5049731;28;20082;-71
2023/10/11 09:44:52;;;;;;;10.02;6.13;;;17.90;99.90;;;;;;5033584;28;20048;-71
2023/10/11 09:47:18;;;;;;;11.40;5.57;;;17.90;99.90;;;;;;5051363;28;20041;-71
2023/10/11 09:49:47;;;;;;;9.48;5.35;;;17.90;99.90;;;;;;5050723;28;20037;-71
2023/10/11 09:52:16;;;;;;;10.23;5.22;;;17.90;99.90;;;;;;5049930;28;20076;-71
2023/10/11 09:54:43;;;;;;;11.52;5.05;;;17.90;99.90;;;;;;5050716;28;20457;-72
2023/10/11 09:57:08;;;;;;;11.10;5.30;;;17.80;99.90;;;;;;5033473;28;20041;-71
2023/10/11 09:59:46;;;;;;;13.65;6.07;;;17.80;99.90;;;;;;5052134;28;20045;-72
2023/10/11 10:02:28;;;;;;;11.13;5.93;;;17.70;99.90;;;;;;5053324;28;20064;-72
2023/10/11 10:04:55;;;;;;;12.75;6.10;;;17.70;99.90;;;;;;5054307;28;20512;-72
2023/10/11 10:07:26;;;;;;;10.68;5.88;;;17.70;99.90;;;;;;5053632;28;20060;-72
2023/10/11 10:09:53;;;;;;;13.40;5.60;;;17.70;99.90;;;;;;5052935;28;20037;-72
2023/10/11 10:12:21;;;;;;;11.05;5.72;;;17.70;99.90;;;;;;5053834;28;20042;-72
2023/10/11 10:15:09;;;;;;;13.27;4.97;;;17.80;99.90;;;;;;5053983;28;20047;-72
2023/10/11 10:17:37;;;;;;;10.98;5.07;;;17.80;99.90;;;;;;5052800;28;20402;-72
2023/10/11 10:20:34;;;;;;;13.65;5.82;;;17.90;99.90;;;;;;5053745;28;20049;-73
2023/10/11 10:23:15;;;;;;;9.45;5.25;;;18.00;99.90;;;;;;5052866;28;20116;-72
2023/10/11 10:25:52;;;;;;;10.27;4.75;;;18.00;99.90;;;;;;5053408;28;20047;-73
2023/10/11 10:28:36;;;;;;;10.50;5.25;;;18.00;99.90;;;;;;5053428;28;20052;-72
2023/10/11 10:31:19;;;;;;;12.02;5.53;;;18.10;99.90;;;;;;5052944;28;20087;-72
2023/10/11 10:34:04;;;;;;;9.40;5.00;;;18.30;99.90;;;;;;5053207;28;20047;-72
2023/10/11 10:36:31;;;;;;;11.50;5.35;;;18.30;99.90;;;;;;5069734;28;20120;-73
2023/10/11 10:39:00;;;;;;;10.27;5.28;;;18.40;99.90;;;;;;5052596;28;20564;-72
2023/10/11 10:41:26;;;;;;;10.00;5.50;;;18.40;99.90;;;;;;5053126;28;20077;-73
2023/10/11 10:44:13;;;;;;;10.32;4.90;;;18.50;99.90;;;;;;5054002;28;20033;-73
2023/10/11 10:46:49;;;;;;;11.07;4.70;;;18.60;99.90;;;;;;5052756;28;20036;-73
2023/10/11 10:49:19;;;;;;;18.83;6.18;;;18.60;99.90;;;;;;5053013;28;20076;-73
2023/10/11 10:51:47;;;;;;;13.23;5.25;;;18.60;99.90;;;;;;5053147;28;21118;-73
2023/10/11 10:54:23;;;;;;;7.35;4.43;;;18.60;99.90;;;;;;5077703;28;20036;-68
2023/10/11 10:56:53;;;;;;;9.27;4.65;;;18.60;99.90;;;;;;5061967;28;20053;-68
2023/10/11 10:59:20;;;;;;;9.07;4.28;;;18.60;99.90;;;;;;5039660;28;20051;-71
2023/10/11 11:01:48;;;;;;;7.90;4.35;;;18.60;99.90;;;;;;5065100;28;20041;-70
2023/10/11 11:04:18;;;;;;;10.18;4.68;;;18.60;99.90;;;;;;5060937;28;20163;-70
2023/10/11 11:06:46;;;;;;;8.48;4.18;;;18.60;99.90;;;;;;5059555;28;20059;-68
2023/10/11 11:09:15;;;;;;;9.40;3.97;;;18.60;99.90;;;;;;5054877;28;20048;-74
2023/10/11 11:11:44;;;;;;;11.55;4.10;;;18.60;99.90;;;;;;5058997;28;20117;-72
2023/10/11 11:14:15;;;;;;;10.90;5.13;;;18.60;99.90;;;;;;5051664;28;20084;-74
2023/10/11 11:16:54;;;;;;;9.70;3.85;;;18.60;99.90;;;;;;5066969;28;20055;-72
2023/10/11 11:19:25;;;;;;;7.20;3.53;;;18.60;99.90;;;;;;5059452;28;20432;-73
2023/10/11 11:22:12;;;;;;;12.60;4.40;;;18.60;99.90;;;;;;5070655;28;20036;-73
2023/10/11 11:24:41;;;;;;;9.50;4.82;;;18.50;99.90;;;;;;5051435;28;20051;-72
2023/10/11 11:27:18;;;;;;;9.60;3.85;;;18.40;99.90;;;;;;5051296;28;20048;-73
2023/10/11 11:29:47;;;;;;;12.13;3.90;;;18.50;99.90;;;;;;5049258;28;20081;-73
2023/10/11 11:32:16;;;;;;;7.45;3.85;;;18.50;99.90;;;;;;5059969;28;20552;-73
2023/10/11 11:35:02;;;;;;;8.55;4.47;;;18.50;99.90;;;;;;5053388;28;20067;-72
2023/10/11 11:37:30;;;;;;;7.95;3.40;;;18.50;99.90;;;;;;5055680;28;20052;-72
2023/10/11 11:42:48;;;;;;;11.52;4.75;;;18.60;99.90;;;;;;5051706;28;20589;-71
2023/10/11 11:45:18;;;;;;;9.68;3.67;;;18.60;99.90;;;;;;5091576;28;20047;-72
2023/10/11 11:48:00;;;;;;;11.75;5.07;;;18.60;99.90;;;;;;5062908;28;20052;-72
2023/10/11 11:50:31;;;;;;;11.50;4.10;;;18.60;99.90;;;;;;5063328;28;20057;-72
2023/10/11 11:52:57;;;;;;;10.82;4.78;;;18.70;99.90;;;;;;5085926;28;20041;-73
2023/10/11 11:55:23;;;;;;;11.73;4.25;;;18.70;99.90;;;;;;5062753;28;20121;-73
2023/10/11 11:57:49;;;;;;;10.52;4.75;;;18.80;99.90;;;;;;5061975;28;20047;-73
2023/10/11 12:02:55;;;;;;;9.43;4.00;;;18.80;99.90;;;;;;5073961;28;20084;-71
2023/10/11 12:05:21;;;;;;;12.77;4.95;;;18.80;99.90;;;;;;5053408;28;20490;-71
2023/10/11 12:07:51;;;;;;;10.55;4.32;;;18.70;99.90;;;;;;5051288;28;20079;-72
2023/10/11 12:10:23;;;;;;;9.73;4.25;;;18.70;99.90;;;;;;5050641;28;20058;-73
2023/10/11 12:12:53;;;;;;;11.73;3.70;;;18.70;99.90;;;;;;5034579;28;20041;-72
2023/10/11 12:15:20;;;;;;;8.68;3.35;;;18.70;99.90;;;;;;5044752;28;20109;-73
2023/10/11 12:17:47;;;;;;;9.63;4.03;;;18.70;99.90;;;;;;5047687;28;20036;-72
2023/10/11 12:20:15;;;;;;;8.38;3.38;;;18.70;99.90;;;;;;5047278;28;20062;-73
2023/10/11 12:22:44;;;;;;;9.68;3.60;;;18.70;99.90;;;;;;5052470;28;20568;-72
2023/10/11 12:25:13;;;;;;;9.68;3.95;;;18.70;99.90;;;;;;5056053;28;20040;-71
2023/10/11 12:27:42;;;;;;;10.13;4.40;;;18.70;99.90;;;;;;5047958;28;20202;-71
2023/10/11 12:30:33;;;;;;;10.30;3.85;;;18.70;99.90;;;;;;5048438;28;20043;-70
2023/10/11 12:32:55;;;;;;;10.55;4.03;;;18.70;99.90;;;;;;5037906;28;20049;-72
2023/10/11 12:35:23;;;;;;;10.00;4.43;;;18.70;99.90;;;;;;5048018;28;20048;-72
2023/10/11 12:37:49;;;;;;;12.48;5.15;;;18.80;99.90;;;;;;5031624;28;20037;-71
2023/10/11 12:40:24;;;;;;;11.50;4.35;;;18.80;99.90;;;;;;5048709;28;20040;-72
2023/10/11 12:42:50;;;;;;;9.82;4.10;;;18.80;99.90;;;;;;5031626;28;20501;-70
2023/10/11 12:45:19;;;;;;;11.50;4.10;;;18.90;99.90;;;;;;5049071;28;20437;-72
2023/10/11 12:47:45;;;;;;;9.38;4.05;;;18.90;99.90;;;;;;5048103;28;20371;-71
2023/10/11 12:50:13;;;;;;;10.07;4.10;;;18.90;99.90;;;;;;5049238;28;20048;-71
2023/10/11 12:52:40;;;;;;;9.35;4.22;;;18.80;99.90;;;;;;5056834;28;20029;-71
2023/10/11 12:55:07;;;;;;;10.77;3.58;;;18.80;99.90;;;;;;5048436;28;20122;-71
2023/10/11 12:57:37;;;;;;;10.57;3.58;;;18.80;99.90;;;;;;5047573;28;20053;-73
2023/10/11 13:02:57;;;;;;;8.85;4.45;;;18.90;99.90;;;;;;5062127;28;20056;-72
2023/10/11 13:05:26;;;;;;;11.30;3.90;;;18.90;99.90;;;;;;5047418;28;20529;-72
2023/10/11 13:07:55;;;;;;;12.05;4.45;;;18.80;99.90;;;;;;5047344;28;20067;-72
2023/10/11 13:10:24;;;;;;;14.68;5.40;;;18.80;99.90;;;;;;5052027;28;20040;-73
2023/10/11 13:12:53;;;;;;;9.75;4.13;;;18.80;99.90;;;;;;5066752;28;20048;-72
2023/10/11 13:15:22;;;;;;;14.95;4.70;;;18.70;99.90;;;;;;5071502;28;20033;-73
2023/10/11 13:17:49;;;;;;;12.18;3.83;;;18.70;99.90;;;;;;5058357;28;20513;-73
2023/10/11 13:20:31;;;;;;;11.65;4.28;;;18.70;99.90;;;;;;5047516;28;20359;-70
2023/10/11 13:22:56;;;;;;;10.65;4.30;;;18.70;99.90;;;;;;5062962;28;20097;-71
2023/10/11 13:25:25;;;;;;;9.02;3.92;;;18.70;99.90;;;;;;5047858;28;20440;-72
2023/10/11 13:27:54;;;;;;;12.88;4.18;;;18.60;99.90;;;;;;5047063;28;20044;-72
2023/10/11 13:30:23;;;;;;;11.48;4.88;;;18.50;99.90;;;;;;5047878;28;21692;-72
2023/10/11 13:32:50;;;;;;;11.40;4.75;;;18.40;99.90;;;;;;5047402;28;20509;-73
2023/10/11 13:35:19;;;;;;;9.98;4.07;;;18.50;99.90;;;;;;5068375;28;20044;-73
2023/10/11 13:37:48;;;;;;;15.00;5.00;;;18.40;99.90;;;;;;5051099;28;20080;-72
2023/10/11 13:40:17;;;;;;;11.88;4.93;;;18.40;99.90;;;;;;5053570;28;20068;-72
2023/10/11 13:42:43;;;;;;;12.70;4.72;;;18.30;99.90;;;;;;5075556;28;20056;-72
2023/10/11 13:45:16;;;;;;;11.27;4.93;;;18.30;99.90;;;;;;5068516;28;20044;-72
2023/10/11 13:47:42;;;;;;;10.65;4.60;;;18.20;99.90;;;;;;5051689;28;20049;-71